Time;durP1;ratioP1;P1;durP2;ratioP2;P2;SDS_P1;SDS_P2;PMS_P1;PMS_P2;Temp;Humidity;BMP_temperature;BMP_pressure;BME280_temperature;BME280_humidity;BME280_pressure;Samples;Min_cycle;Max_cycle;Signal;HPM_P1;HPM_P2
2021/07/12 00:01:53;;;;;;;8.52;1.60;;;18.00;75.20;;;17.73;60.23;94968.31;5035378;28;20215;-83
2021/07/12 00:04:20;;;;;;;13.88;1.70;;;18.00;75.30;;;17.72;60.13;94966.69;5018695;28;20246;-84
2021/07/12 00:06:46;;;;;;;7.68;1.98;;;18.00;75.60;;;17.72;60.42;94983.44;5033204;28;20755;-84
2021/07/12 00:09:14;;;;;;;11.82;2.30;;;17.90;75.60;;;17.72;60.40;94978.13;5034991;28;20226;-84
2021/07/12 00:11:42;;;;;;;28.83;2.10;;;17.90;75.70;;;17.74;60.38;94976.00;5035056;28;20219;-84
2021/07/12 00:14:09;;;;;;;4.35;1.83;;;17.90;76.00;;;17.77;60.51;94980.88;5034545;28;20211;-83
2021/07/12 00:16:36;;;;;;;8.55;1.52;;;17.90;76.00;;;17.80;60.50;94976.09;5050511;28;20491;-83
2021/07/12 00:19:04;;;;;;;24.33;1.92;;;17.90;76.10;;;17.81;60.72;94967.13;5018009;28;20700;-84
2021/07/12 00:21:31;;;;;;;10.63;1.70;;;17.80;76.10;;;17.79;60.57;94962.06;5034597;28;20373;-83
2021/07/12 00:23:59;;;;;;;9.23;1.63;;;18.00;76.20;;;17.79;60.92;94955.94;5017897;28;20314;-84
2021/07/12 00:26:27;;;;;;;11.70;1.98;;;17.80;76.10;;;17.77;60.52;94958.81;5017661;28;20230;-83
2021/07/12 00:28:54;;;;;;;11.13;1.80;;;17.90;76.10;;;17.74;60.46;94956.66;5019264;28;20223;-84
2021/07/12 00:31:20;;;;;;;10.38;1.63;;;17.90;75.90;;;17.66;60.51;94947.19;5051374;28;20696;-83
2021/07/12 00:33:47;;;;;;;9.35;1.58;;;17.90;75.90;;;17.64;60.84;94951.13;5034623;28;20222;-83
2021/07/12 00:36:14;;;;;;;4.95;1.60;;;17.90;75.80;;;17.62;60.79;94947.94;5031243;28;20301;-84
2021/07/12 00:38:42;;;;;;;3.30;1.75;;;17.90;75.90;;;17.57;60.82;94944.13;4997561;28;20254;-84
2021/07/12 00:41:08;;;;;;;12.20;2.03;;;17.80;75.90;;;17.54;60.54;94949.91;5018105;28;20243;-84
2021/07/12 00:43:38;;;;;;;8.18;1.70;;;17.70;75.60;;;17.48;60.97;94940.25;5018000;28;20211;-84
2021/07/12 00:46:08;;;;;;;5.00;1.50;;;17.70;75.80;;;17.42;60.43;94939.31;5028250;28;20231;-84
2021/07/12 00:48:35;;;;;;;14.70;1.88;;;17.70;75.60;;;17.35;60.74;94935.19;5030422;28;20604;-84
2021/07/12 00:51:03;;;;;;;13.20;1.95;;;17.70;75.70;;;17.28;61.31;94936.13;4998377;28;20314;-85
2021/07/12 00:53:31;;;;;;;23.30;2.13;;;17.60;75.80;;;17.20;61.57;94933.84;4998280;28;20743;-84
2021/07/12 00:55:58;;;;;;;15.40;1.75;;;17.60;75.80;;;17.17;61.36;94934.28;5033260;28;20219;-84
2021/07/12 00:58:27;;;;;;;19.48;1.80;;;17.40;75.80;;;17.11;61.68;94936.03;5016832;28;20226;-83
2021/07/12 01:00:59;;;;;;;55.72;2.60;;;17.50;76.30;;;17.05;62.29;94930.84;5017195;28;20234;-84
2021/07/12 01:03:28;;;;;;;79.90;2.67;;;17.40;76.60;;;17.04;62.15;94934.53;5050827;28;20450;-84
2021/07/12 01:05:56;;;;;;;47.70;2.50;;;17.40;76.40;;;16.98;62.78;94922.19;5013942;28;20228;-83
2021/07/12 01:08:25;;;;;;;41.65;1.70;;;17.30;76.70;;;16.94;63.58;94919.22;4997065;28;20681;-84
2021/07/12 01:11:28;;;;;;;51.90;2.08;;;17.30;77.50;;;16.85;63.01;94926.69;5018311;28;20231;-84
2021/07/12 01:14:24;;;;;;;15.95;1.38;;;17.20;77.30;;;16.81;63.50;94930.84;5049818;28;20645;-83
2021/07/12 01:17:20;;;;;;;19.52;1.40;;;17.20;77.20;;;16.72;63.80;94929.56;5033513;28;20233;-83
2021/07/12 01:20:15;;;;;;;24.80;1.67;;;17.10;77.10;;;16.63;64.16;94924.59;5044735;28;20231;-84
2021/07/12 01:23:05;;;;;;;13.88;1.50;;;17.10;77.40;;;16.57;63.98;94930.81;5047366;28;20769;-82
2021/07/12 01:26:14;;;;;;;7.55;1.48;;;17.00;77.70;;;16.51;63.18;94933.56;5016544;28;20223;-84
2021/07/12 01:29:21;;;;;;;15.70;1.40;;;16.90;77.90;;;16.55;63.14;94940.84;5017065;28;20226;-84
2021/07/12 01:32:27;;;;;;;9.15;1.45;;;16.90;78.20;;;16.56;63.29;94937.13;5014951;28;20219;-83
2021/07/12 01:35:07;;;;;;;14.23;1.52;;;16.80;78.30;;;16.60;63.18;94948.06;5033844;28;20231;-83
2021/07/12 01:38:01;;;;;;;5.32;1.67;;;16.90;78.20;;;16.64;63.04;94949.25;5034556;28;20239;-83
2021/07/12 01:40:36;;;;;;;3.38;1.50;;;16.80;78.20;;;16.68;63.28;94949.59;5016863;28;20249;-83
2021/07/12 01:43:34;;;;;;;7.93;1.63;;;16.80;77.90;;;16.74;62.80;94948.69;5017629;28;20301;-83
2021/07/12 01:46:15;;;;;;;5.82;1.30;;;16.80;78.60;;;16.78;62.88;94955.94;5034211;28;20258;-84
2021/07/12 01:49:19;;;;;;;10.57;1.60;;;16.90;78.70;;;16.76;62.74;94947.41;5036350;28;20191;-83
2021/07/12 01:52:09;;;;;;;11.85;1.55;;;16.90;78.70;;;16.79;62.96;94948.78;5027600;28;20592;-84
2021/07/12 01:55:07;;;;;;;6.05;1.30;;;16.90;78.50;;;16.75;62.70;94931.75;5013817;28;20244;-84
2021/07/12 01:58:30;;;;;;;9.68;1.40;;;16.90;78.70;;;16.76;62.59;94928.88;4982721;28;20231;-83
2021/07/12 02:00:58;;;;;;;11.25;1.65;;;16.90;78.70;;;16.78;62.66;94924.16;4998299;28;20484;-83
2021/07/12 02:03:29;;;;;;;11.35;1.52;;;16.90;77.90;;;16.84;62.58;94927.72;5033676;28;20215;-83
2021/07/12 02:06:03;;;;;;;11.43;1.50;;;17.00;78.40;;;16.87;62.94;94921.97;5033582;28;20689;-83
2021/07/12 02:08:34;;;;;;;6.20;1.35;;;17.00;78.40;;;16.89;62.78;94917.22;5032746;28;20280;-84
2021/07/12 02:11:02;;;;;;;8.15;1.60;;;17.00;78.40;;;16.94;63.00;94921.84;5046414;28;20230;-83
2021/07/12 02:13:37;;;;;;;14.88;1.90;;;17.00;78.30;;;16.94;62.86;94920.03;5033098;28;20207;-83
2021/07/12 02:16:16;;;;;;;9.70;1.70;;;17.00;78.30;;;16.96;62.99;94919.78;5006632;28;20744;-84
2021/07/12 02:18:45;;;;;;;11.63;1.67;;;17.10;78.30;;;16.96;62.56;94909.19;4991214;28;20353;-83
2021/07/12 02:21:34;;;;;;;13.50;1.42;;;17.00;78.40;;;16.93;62.56;94905.16;5036595;28;20256;-84
2021/07/12 02:24:15;;;;;;;13.27;1.40;;;17.00;78.20;;;16.98;62.94;94906.31;5023505;28;20231;-83
2021/07/12 02:26:44;;;;;;;14.90;1.67;;;17.00;78.20;;;16.98;62.77;94901.84;5053145;28;20226;-84
2021/07/12 02:29:13;;;;;;;8.55;1.23;;;17.10;78.30;;;16.94;62.37;94900.66;5020168;28;20223;-84
2021/07/12 02:31:41;;;;;;;9.98;1.35;;;17.10;78.10;;;16.86;62.05;94890.41;5003698;28;20251;-84
2021/07/12 02:34:10;;;;;;;16.30;1.40;;;17.10;78.00;;;16.86;62.64;94911.59;5020629;28;20230;-83
2021/07/12 02:36:41;;;;;;;10.27;1.40;;;17.10;78.80;;;16.82;62.79;94908.59;5036664;28;20231;-84
2021/07/12 02:39:14;;;;;;;25.75;1.42;;;17.00;77.80;;;16.76;62.60;94912.97;5036669;28;20245;-84
2021/07/12 02:41:41;;;;;;;14.98;1.50;;;17.00;77.90;;;16.72;62.78;94911.84;5020830;28;20211;-83
2021/07/12 02:44:12;;;;;;;19.02;1.40;;;17.00;77.80;;;16.69;62.47;94914.13;5036155;28;20269;-84
2021/07/12 02:46:41;;;;;;;6.55;1.25;;;16.90;77.90;;;16.64;62.56;94912.16;5033819;28;20219;-84
2021/07/12 02:49:09;;;;;;;8.90;1.25;;;17.00;77.90;;;16.61;62.69;94904.69;5019713;28;20558;-83
2021/07/12 02:51:54;;;;;;;28.98;1.90;;;16.90;77.80;;;16.58;62.89;94908.59;5020690;28;20203;-83
2021/07/12 02:54:28;;;;;;;18.48;1.60;;;16.90;78.80;;;16.59;63.19;94901.47;5002628;28;20712;-84
2021/07/12 02:56:56;;;;;;;18.92;2.38;;;16.90;78.70;;;16.56;62.86;94894.75;5036395;28;20726;-83
2021/07/12 02:59:24;;;;;;;10.10;1.30;;;16.80;77.90;;;16.55;62.68;94897.66;5010533;28;20223;-83
2021/07/12 03:01:51;;;;;;;10.18;1.20;;;16.80;77.90;;;16.54;62.82;94893.38;5049090;28;20207;-82
2021/07/12 03:04:19;;;;;;;4.28;1.20;;;16.80;77.90;;;16.45;63.11;94890.28;5014412;28;20227;-84
2021/07/12 03:06:51;;;;;;;4.82;1.20;;;16.70;77.80;;;16.41;63.03;94883.84;5000259;28;20311;-84
2021/07/12 03:09:33;;;;;;;6.97;1.40;;;16.70;77.80;;;16.37;62.67;94880.84;4984033;28;20254;-83
2021/07/12 03:12:13;;;;;;;1.48;1.15;;;16.70;77.90;;;16.32;62.35;94881.53;5015363;28;20271;-84
2021/07/12 03:14:56;;;;;;;6.00;1.08;;;16.60;77.70;;;16.23;62.23;94879.44;4999544;28;20317;-84
2021/07/12 03:17:26;;;;;;;1.20;0.90;;;16.60;77.50;;;16.17;62.68;94881.16;5050949;28;20235;-82
2021/07/12 03:19:57;;;;;;;3.83;1.13;;;16.50;77.10;;;16.10;62.22;94875.97;5031782;28;20779;-83
2021/07/12 03:22:27;;;;;;;1.38;1.00;;;16.50;77.40;;;16.02;62.57;94878.13;5004475;28;20211;-83
2021/07/12 03:24:58;;;;;;;1.45;1.05;;;16.40;77.10;;;15.99;62.75;94882.84;5033624;28;20231;-82
2021/07/12 03:27:28;;;;;;;2.13;1.00;;;16.40;77.40;;;15.93;62.54;94882.94;5034275;28;20225;-83
2021/07/12 03:29:56;;;;;;;1.08;1.00;;;16.30;77.20;;;15.92;62.52;94876.84;5034640;28;20739;-83
2021/07/12 03:32:27;;;;;;;3.00;1.10;;;16.30;77.30;;;15.91;62.98;94877.06;5048573;28;20264;-83
2021/07/12 03:35:00;;;;;;;3.58;1.10;;;16.30;77.60;;;15.88;62.63;94872.22;5035096;28;20230;-83
2021/07/12 03:37:27;;;;;;;4.90;1.15;;;16.20;77.70;;;15.90;62.86;94867.53;5034126;28;20220;-83
2021/07/12 03:39:56;;;;;;;19.58;1.35;;;16.20;77.70;;;15.84;62.86;94858.66;5017716;28;20561;-82
2021/07/12 03:42:23;;;;;;;1.05;0.95;;;16.20;77.80;;;15.82;62.87;94861.53;5035599;28;20239;-83
2021/07/12 03:44:55;;;;;;;9.40;1.23;;;16.10;77.60;;;15.84;63.24;94867.41;5034776;28;20700;-82
2021/07/12 03:47:29;;;;;;;7.03;1.20;;;16.10;77.80;;;15.86;62.99;94879.59;5019975;28;20247;-83
2021/07/12 03:50:13;;;;;;;17.80;1.50;;;16.10;78.10;;;15.84;63.11;94871.88;5055547;28;20223;-82
2021/07/12 03:52:49;;;;;;;3.65;1.10;;;16.10;78.10;;;15.86;62.92;94876.94;5031436;28;20298;-83
2021/07/12 03:55:22;;;;;;;11.00;1.45;;;16.10;77.90;;;15.84;63.10;94863.94;5015893;28;20501;-83
2021/07/12 03:57:51;;;;;;;4.90;1.10;;;16.10;78.00;;;15.89;63.03;94858.75;5016320;28;20227;-83
2021/07/12 04:00:26;;;;;;;14.18;0.98;;;16.10;78.00;;;15.91;62.88;94856.72;5049117;28;20384;-83
2021/07/12 04:02:53;;;;;;;8.52;1.00;;;16.10;78.90;;;15.95;63.22;94879.06;5000394;28;20226;-83
2021/07/12 04:05:25;;;;;;;3.17;0.85;;;16.10;78.20;;;15.97;63.34;94881.47;5040676;28;20219;-83
2021/07/12 04:07:53;;;;;;;3.13;0.77;;;16.10;78.40;;;15.99;63.45;94871.44;5033131;28;20225;-85
2021/07/12 04:10:20;;;;;;;3.83;1.00;;;16.10;78.70;;;16.04;63.12;94874.22;4998145;28;20224;-84
2021/07/12 04:12:49;;;;;;;5.50;1.15;;;16.10;78.40;;;16.08;63.40;94880.69;5031227;28;20551;-85
2021/07/12 04:15:17;;;;;;;13.55;1.20;;;16.20;78.40;;;16.11;63.19;94868.81;5003684;28;20277;-85
2021/07/12 04:17:45;;;;;;;10.32;1.20;;;16.20;78.70;;;16.16;63.37;94867.13;5030408;28;20354;-85
2021/07/12 04:20:13;;;;;;;16.30;1.40;;;16.30;78.70;;;16.23;63.15;94872.28;5012299;28;20249;-85
2021/07/12 04:22:42;;;;;;;24.52;1.60;;;16.20;78.70;;;16.25;63.15;94872.09;5035878;28;20589;-84
2021/07/12 04:25:11;;;;;;;11.55;1.25;;;16.30;78.50;;;16.28;62.76;94872.44;5047876;28;20227;-84
2021/07/12 04:27:39;;;;;;;16.55;1.50;;;16.30;78.60;;;16.35;63.18;94879.47;5007759;28;20262;-85
2021/07/12 04:30:08;;;;;;;11.98;1.85;;;16.40;78.60;;;16.39;63.00;94880.59;4983174;28;20579;-85
2021/07/12 04:32:35;;;;;;;11.48;2.50;;;16.40;78.80;;;16.43;63.14;94871.97;4999346;28;20220;-85
2021/07/12 04:35:03;;;;;;;15.88;4.13;;;16.40;78.80;;;16.47;63.00;94867.03;5001364;28;20230;-85
2021/07/12 04:37:30;;;;;;;14.30;2.70;;;16.50;79.10;;;16.56;62.84;94870.16;5018685;28;20227;-85
2021/07/12 04:39:57;;;;;;;16.63;1.90;;;16.50;79.00;;;16.60;62.92;94877.41;5021248;28;20338;-85
2021/07/12 04:42:24;;;;;;;9.63;1.52;;;16.50;78.80;;;16.63;63.01;94882.22;5018394;28;20219;-85
2021/07/12 04:44:51;;;;;;;4.35;1.33;;;16.60;78.80;;;16.70;63.28;94878.66;5051675;28;20222;-83
2021/07/12 04:47:17;;;;;;;7.93;1.40;;;16.70;79.20;;;16.76;63.10;94877.72;5014835;28;20224;-85
2021/07/12 04:49:45;;;;;;;7.18;1.40;;;16.70;79.30;;;16.80;63.41;94882.34;5016889;28;20256;-86
2021/07/12 04:52:12;;;;;;;26.45;1.40;;;16.70;79.00;;;16.85;62.82;94886.94;5018591;28;20223;-85
2021/07/12 04:54:39;;;;;;;9.73;1.50;;;16.70;78.80;;;16.86;62.95;94887.75;5031834;28;20251;-84
2021/07/12 04:57:05;;;;;;;9.82;1.20;;;16.80;78.80;;;16.91;63.12;94882.56;5035035;28;20226;-84
2021/07/12 04:59:38;;;;;;;3.78;1.13;;;16.90;78.90;;;17.01;63.53;94882.00;5018476;28;20238;-84
2021/07/12 05:02:13;;;;;;;21.38;1.58;;;16.90;79.00;;;17.08;63.16;94888.78;5016874;28;20223;-85
2021/07/12 05:04:41;;;;;;;12.63;1.30;;;17.00;79.10;;;17.14;63.27;94881.75;5034548;28;20219;-85
2021/07/12 05:07:10;;;;;;;25.73;1.50;;;17.00;79.10;;;17.19;62.82;94881.84;5018559;28;20609;-84
2021/07/12 05:09:37;;;;;;;13.93;1.42;;;17.10;79.00;;;17.24;62.72;94878.50;5014420;28;20224;-84
2021/07/12 05:12:09;;;;;;;20.88;1.33;;;17.10;78.80;;;17.28;63.02;94871.69;5016134;28;20312;-85
2021/07/12 05:14:45;;;;;;;4.50;1.17;;;17.20;78.90;;;17.35;62.89;94874.22;5034914;28;20289;-84
2021/07/12 05:17:14;;;;;;;12.85;1.30;;;17.30;79.40;;;17.39;62.93;94872.69;5034615;28;20226;-85
2021/07/12 05:19:42;;;;;;;4.63;1.27;;;17.30;79.70;;;17.49;62.75;94874.75;5031230;28;20227;-86
2021/07/12 05:22:10;;;;;;;15.30;1.30;;;17.40;79.10;;;17.55;63.18;94877.25;5029770;28;20219;-86
2021/07/12 05:24:36;;;;;;;17.15;1.42;;;17.50;79.20;;;17.57;63.22;94871.72;5014899;28;20319;-85
2021/07/12 05:27:04;;;;;;;9.55;1.30;;;17.60;79.30;;;17.67;62.89;94871.91;4982763;28;20611;-86
2021/07/12 05:29:31;;;;;;;8.35;1.27;;;17.50;79.10;;;17.76;62.75;94870.47;5005786;28;20729;-85
2021/07/12 05:31:57;;;;;;;2.47;1.23;;;17.60;79.00;;;17.87;62.83;94878.59;4998630;28;20215;-85
2021/07/12 05:34:24;;;;;;;8.80;1.20;;;17.70;79.00;;;17.96;62.97;94871.13;5034278;28;20231;-87
2021/07/12 05:36:51;;;;;;;6.35;1.30;;;17.70;78.90;;;18.05;62.83;94867.84;5021379;28;20246;-86
2021/07/12 05:39:21;;;;;;;4.15;1.10;;;17.80;79.00;;;18.15;62.82;94869.03;5014333;28;20690;-87
2021/07/12 05:41:48;;;;;;;17.35;1.30;;;17.90;79.10;;;18.21;62.54;94871.53;5014788;28;20219;-87
2021/07/12 05:44:15;;;;;;;4.28;1.00;;;18.00;78.90;;;18.27;62.72;94864.44;5030582;28;20273;-88
2021/07/12 05:46:43;;;;;;;9.45;1.20;;;18.10;78.70;;;18.31;62.20;94857.63;5001942;28;20208;-87
2021/07/12 05:49:10;;;;;;;9.25;1.10;;;18.20;78.70;;;18.37;62.38;94866.47;5013893;28;20284;-87
2021/07/12 05:51:37;;;;;;;21.33;1.40;;;18.20;78.60;;;18.38;62.19;94862.75;5038965;28;20235;-87
2021/07/12 05:54:04;;;;;;;15.23;1.40;;;18.20;78.30;;;18.38;62.09;94854.78;5037732;28;20262;-88
2021/07/12 05:56:31;;;;;;;7.93;1.08;;;18.20;78.20;;;18.40;62.11;94852.72;5020796;28;20218;-87
2021/07/12 05:58:57;;;;;;;22.33;1.52;;;18.30;78.20;;;18.44;61.92;94858.34;5048487;28;20214;-87
2021/07/12 06:01:45;;;;;;;1.13;1.00;;;18.30;78.20;;;18.45;62.51;94842.16;5031255;28;20216;-87
2021/07/12 06:04:13;;;;;;;2.88;1.08;;;18.30;78.20;;;18.54;62.07;94843.38;4999680;28;20253;-88
2021/07/12 06:06:40;;;;;;;1.40;1.30;;;18.40;78.40;;;18.61;61.94;94842.41;5037399;28;20277;-87
2021/07/12 06:09:07;;;;;;;5.47;1.20;;;18.40;78.50;;;18.74;62.28;94836.72;5054003;28;20223;-87
2021/07/12 06:11:35;;;;;;;3.55;1.35;;;18.50;78.70;;;18.94;62.41;94838.09;5020906;28;20226;-88
2021/07/12 06:14:01;;;;;;;1.40;1.33;;;18.60;78.90;;;19.10;62.08;94834.56;5020141;28;20218;-88
2021/07/12 06:16:29;;;;;;;1.48;1.30;;;18.70;79.00;;;19.28;61.88;94833.44;5053677;28;20657;-87
2021/07/12 06:18:56;;;;;;;1.92;1.35;;;18.80;78.90;;;19.40;61.87;94835.19;5037086;28;20218;-87
2021/07/12 06:21:23;;;;;;;3.25;1.40;;;18.90;78.90;;;19.56;61.74;94839.59;5021055;28;20265;-87
2021/07/12 06:23:50;;;;;;;1.52;1.42;;;19.10;79.00;;;19.66;61.41;94826.41;5028742;28;20220;-87
2021/07/12 06:26:17;;;;;;;1.10;1.10;;;19.20;79.00;;;19.73;61.17;94830.72;5017981;28;20701;-86
2021/07/12 06:28:44;;;;;;;1.38;1.27;;;19.30;78.80;;;19.76;61.49;94824.88;5017779;28;20218;-87
2021/07/12 06:31:11;;;;;;;2.10;1.60;;;19.40;78.60;;;19.84;61.46;94830.59;5017287;28;20227;-87
2021/07/12 06:33:38;;;;;;;1.40;1.30;;;19.40;78.50;;;19.94;61.32;94826.41;5033290;28;20212;-87
2021/07/12 06:36:06;;;;;;;2.38;1.50;;;19.50;78.50;;;20.05;61.42;94828.09;4985081;28;20277;-85
2021/07/12 06:38:33;;;;;;;1.45;1.35;;;19.60;78.70;;;20.12;61.53;94820.72;5000918;28;20239;-86
2021/07/12 06:41:00;;;;;;;1.50;1.40;;;19.70;78.70;;;20.29;61.51;94820.56;5001706;28;20265;-86
2021/07/12 06:43:27;;;;;;;1.90;1.70;;;19.80;78.70;;;20.45;61.30;94828.69;5004436;28;20304;-86
2021/07/12 06:45:56;;;;;;;1.70;1.60;;;19.90;78.70;;;20.58;60.95;94828.25;5020461;28;20239;-86
2021/07/12 06:48:23;;;;;;;1.60;1.45;;;20.00;78.70;;;20.71;61.11;94834.19;5052698;28;20237;-86
2021/07/12 06:51:04;;;;;;;2.13;1.63;;;20.20;78.40;;;20.76;60.86;94836.91;5051387;28;20235;-86
2021/07/12 06:53:34;;;;;;;1.55;1.45;;;20.30;78.20;;;20.83;60.38;94826.81;5036393;28;20637;-86
2021/07/12 06:56:03;;;;;;;1.45;1.35;;;20.50;78.10;;;20.90;60.25;94830.03;5036158;28;20697;-86
2021/07/12 06:58:30;;;;;;;1.52;1.42;;;20.40;77.70;;;20.95;60.34;94826.59;5052053;28;20702;-86
2021/07/12 07:00:57;;;;;;;1.30;1.20;;;20.60;77.60;;;21.04;60.33;94834.91;5020342;28;20298;-86
2021/07/12 07:03:23;;;;;;;1.40;1.30;;;20.60;77.60;;;21.10;59.84;94837.34;5053091;28;20317;-86
2021/07/12 07:05:51;;;;;;;1.30;1.20;;;20.70;77.30;;;21.21;60.26;94832.06;5019972;28;20240;-85
2021/07/12 07:08:37;;;;;;;1.50;1.40;;;20.80;77.50;;;21.34;60.39;94828.91;5038145;28;20216;-85
2021/07/12 07:11:09;;;;;;;1.48;1.38;;;20.90;77.50;;;21.38;59.71;94818.50;5051707;28;20344;-86
2021/07/12 07:13:37;;;;;;;1.20;1.20;;;20.90;77.00;;;21.47;59.83;94824.94;5036681;28;20239;-86
2021/07/12 07:16:05;;;;;;;1.40;1.30;;;21.10;76.80;;;21.53;59.45;94823.91;5036258;28;20239;-85
2021/07/12 07:18:34;;;;;;;1.40;1.30;;;21.10;76.70;;;21.63;58.66;94825.00;5035574;28;20724;-84
2021/07/12 07:21:03;;;;;;;1.50;1.40;;;21.20;76.60;;;21.70;59.08;94817.53;5020015;28;20233;-85
2021/07/12 07:23:30;;;;;;;1.25;1.15;;;21.20;76.60;;;21.78;59.03;94816.22;5019862;28;20312;-85
2021/07/12 07:25:57;;;;;;;1.40;1.30;;;21.30;77.50;;;21.84;58.65;94817.84;5051435;28;20219;-85
2021/07/12 07:28:25;;;;;;;1.20;1.10;;;21.30;76.50;;;21.88;58.36;94813.56;5019818;28;20217;-85
2021/07/12 07:30:52;;;;;;;1.35;1.25;;;21.40;76.30;;;21.88;58.51;94814.34;5035894;28;20228;-85
2021/07/12 07:33:21;;;;;;;1.45;1.20;;;21.40;76.10;;;21.87;58.12;94817.28;5019771;28;20223;-85
2021/07/12 07:35:48;;;;;;;1.20;1.10;;;21.50;76.10;;;21.90;58.12;94822.13;5048705;28;20333;-84
2021/07/12 07:38:16;;;;;;;1.40;1.30;;;21.50;75.70;;;21.87;58.48;94825.31;5016161;28;20220;-85
2021/07/12 07:40:43;;;;;;;1.48;1.38;;;21.50;75.60;;;21.83;58.47;94821.56;4999640;28;20233;-84
2021/07/12 07:43:10;;;;;;;1.50;1.25;;;21.50;75.60;;;21.84;58.23;94818.63;4983562;28;20223;-85
2021/07/12 07:45:36;;;;;;;2.33;1.20;;;21.50;75.60;;;21.84;58.47;94813.28;5010598;28;20679;-84
2021/07/12 07:48:04;;;;;;;1.63;1.40;;;21.60;76.10;;;21.87;58.26;94814.63;5035936;28;20237;-84
2021/07/12 07:50:32;;;;;;;1.50;1.40;;;21.50;75.70;;;21.90;58.40;94814.09;5035559;28;20226;-85
2021/07/12 07:52:59;;;;;;;1.40;1.30;;;21.50;75.50;;;21.88;58.06;94809.00;5019169;28;20220;-83
2021/07/12 07:55:26;;;;;;;2.55;1.40;;;21.50;75.40;;;21.87;58.09;94803.94;5051926;28;20224;-84
2021/07/12 07:57:52;;;;;;;1.27;1.27;;;21.60;75.50;;;21.89;58.04;94809.84;5018690;28;20207;-84
2021/07/12 08:00:21;;;;;;;1.40;1.30;;;21.60;75.90;;;21.94;58.24;94804.50;5018748;28;20243;-84
2021/07/12 08:02:48;;;;;;;1.50;1.40;;;21.60;75.50;;;22.01;58.42;94796.22;5019152;28;20573;-84
2021/07/12 08:05:15;;;;;;;1.50;1.40;;;21.70;75.90;;;22.05;58.35;94802.63;5020731;28;20582;-84
2021/07/12 08:07:41;;;;;;;1.77;1.67;;;21.70;75.80;;;22.09;58.37;94802.91;5034739;28;20221;-85
2021/07/12 08:10:11;;;;;;;1.63;1.40;;;21.70;75.80;;;22.13;58.37;94801.28;5035174;28;20237;-84
2021/07/12 08:12:38;;;;;;;1.48;1.35;;;21.70;75.80;;;22.18;58.21;94803.94;5030498;28;20223;-83
2021/07/12 08:15:08;;;;;;;1.35;1.33;;;21.80;75.80;;;22.17;58.24;94803.16;4982850;28;20231;-84
2021/07/12 08:17:37;;;;;;;1.25;1.20;;;21.80;75.60;;;22.17;57.92;94797.81;4967522;28;20241;-84
2021/07/12 08:20:06;;;;;;;1.35;1.33;;;21.90;75.50;;;22.19;57.84;94798.34;5017676;28;20337;-84
2021/07/12 08:22:45;;;;;;;1.40;1.25;;;21.90;75.30;;;22.26;57.97;94802.63;5004308;28;20214;-84
2021/07/12 08:25:13;;;;;;;1.50;1.40;;;21.90;75.50;;;22.30;58.23;94796.47;5034157;28;20760;-84
2021/07/12 08:27:40;;;;;;;1.27;1.20;;;21.90;75.40;;;22.32;57.87;94780.19;5033950;28;20211;-85
2021/07/12 08:30:09;;;;;;;1.48;1.40;;;22.00;75.40;;;22.43;58.18;94791.69;5016342;28;20332;-84
2021/07/12 08:32:37;;;;;;;1.42;1.33;;;22.00;75.40;;;22.55;58.15;94784.19;5034330;28;20232;-85
2021/07/12 08:35:06;;;;;;;1.60;1.40;;;22.10;75.90;;;22.66;57.89;94787.63;5034728;28;20229;-85
2021/07/12 08:37:33;;;;;;;1.55;1.45;;;22.20;75.60;;;22.75;57.76;94779.84;5030452;28;20222;-85
2021/07/12 08:40:00;;;;;;;1.45;1.30;;;22.30;75.30;;;22.81;57.72;94778.75;5045024;28;20312;-84
2021/07/12 08:42:28;;;;;;;1.10;1.10;;;22.30;75.00;;;22.86;57.14;94766.19;5032931;28;20619;-84
2021/07/12 08:44:55;;;;;;;1.40;1.30;;;22.40;74.80;;;22.87;56.86;94769.63;5047449;28;20261;-84
2021/07/12 08:47:22;;;;;;;1.50;1.40;;;22.40;74.90;;;22.92;57.10;94772.28;4998433;28;20257;-84
2021/07/12 08:49:50;;;;;;;1.40;1.30;;;22.50;74.80;;;22.93;56.93;94765.09;4965589;28;20236;-84
2021/07/12 08:52:17;;;;;;;1.10;1.10;;;22.50;74.80;;;22.98;56.68;94765.06;5028697;28;20243;-83
2021/07/12 08:54:44;;;;;;;2.78;1.35;;;22.60;74.40;;;22.95;56.69;94762.91;5032520;28;20630;-83
2021/07/12 08:57:11;;;;;;;1.20;1.20;;;22.60;74.50;;;22.97;56.40;94771.47;5032332;28;20318;-84
2021/07/12 08:59:40;;;;;;;2.63;1.48;;;22.60;74.10;;;22.96;56.34;94767.19;5029578;28;20230;-84
2021/07/12 09:02:19;;;;;;;1.20;1.20;;;22.60;73.90;;;22.97;56.44;94768.81;4998170;28;20226;-84
2021/07/12 09:04:53;;;;;;;1.35;1.30;;;22.60;73.90;;;22.99;56.12;94764.78;5001452;28;20228;-84
2021/07/12 09:07:22;;;;;;;2.65;1.40;;;22.60;73.70;;;23.00;56.47;94776.28;5050251;28;20214;-84
2021/07/12 09:10:11;;;;;;;1.40;1.30;;;22.70;73.90;;;22.96;56.56;94775.22;5034279;28;20218;-84
2021/07/12 09:12:46;;;;;;;2.28;1.38;;;22.70;74.00;;;22.93;56.50;94765.09;5030531;28;20638;-84
2021/07/12 09:15:22;;;;;;;1.60;1.50;;;22.70;74.00;;;22.98;56.53;94757.81;4981621;28;20252;-84
2021/07/12 09:17:54;;;;;;;1.60;1.50;;;22.70;74.00;;;23.08;56.58;94764.22;5040939;28;20239;-84
2021/07/12 09:20:27;;;;;;;1.48;1.38;;;22.70;74.00;;;23.15;56.65;94760.16;5015918;28;20262;-84
2021/07/12 09:22:54;;;;;;;1.63;1.52;;;22.70;74.30;;;23.23;56.51;94768.72;5026980;28;20672;-84
2021/07/12 09:25:21;;;;;;;2.17;1.52;;;22.80;74.30;;;23.29;56.43;94768.41;5006790;28;20226;-84
2021/07/12 09:27:55;;;;;;;1.40;1.30;;;22.80;74.40;;;23.40;56.60;94777.19;5013921;28;20227;-84
2021/07/12 09:30:23;;;;;;;1.38;1.30;;;22.90;74.30;;;23.50;56.08;94766.41;5014021;28;20240;-84
2021/07/12 09:32:53;;;;;;;1.23;1.23;;;23.00;74.40;;;23.63;55.88;94767.69;4997965;28;20230;-84
2021/07/12 09:35:21;;;;;;;1.30;1.30;;;23.00;73.70;;;23.75;56.11;94766.53;5010844;28;20231;-84
2021/07/12 09:37:59;;;;;;;1.40;1.30;;;23.10;73.90;;;23.91;55.57;94768.03;5004064;28;20237;-84
2021/07/12 09:40:31;;;;;;;1.42;1.33;;;23.20;74.10;;;24.01;55.61;94758.31;5033407;28;20222;-83
2021/07/12 09:42:58;;;;;;;1.40;1.40;;;23.30;74.00;;;24.11;55.30;94761.72;5020104;28;20591;-84
2021/07/12 09:45:28;;;;;;;1.48;1.38;;;23.50;73.90;;;24.25;55.01;94763.75;5015508;28;20560;-84
2021/07/12 09:48:05;;;;;;;1.50;1.40;;;23.50;73.50;;;24.33;55.15;94757.78;5012422;28;20204;-84
2021/07/12 09:50:32;;;;;;;1.50;1.40;;;23.70;73.50;;;24.40;54.86;94768.97;5021364;28;20224;-84
2021/07/12 09:53:06;;;;;;;2.08;1.70;;;23.80;73.70;;;24.50;55.05;94764.59;5013423;28;20559;-83
2021/07/12 09:55:35;;;;;;;1.50;1.40;;;23.80;73.60;;;24.58;55.02;94763.97;4997612;28;20247;-84
2021/07/12 09:58:16;;;;;;;2.25;1.50;;;23.90;73.50;;;24.62;54.42;94768.47;5029758;28;20720;-85
2021/07/12 10:00:48;;;;;;;1.50;1.40;;;24.00;72.20;;;24.70;54.00;94763.63;5025576;28;20302;-84
2021/07/12 10:03:16;;;;;;;1.50;1.40;;;24.10;71.90;;;24.73;54.03;94760.34;5033674;28;20221;-84
2021/07/12 10:05:45;;;;;;;1.73;1.63;;;24.10;72.10;;;24.73;53.63;94754.97;5015579;28;20740;-83
2021/07/12 10:08:13;;;;;;;1.70;1.60;;;24.20;71.70;;;24.80;53.27;94752.75;4998730;28;20223;-83
2021/07/12 10:10:40;;;;;;;1.52;1.40;;;24.20;71.60;;;24.81;53.36;94748.22;5032687;28;20276;-84
2021/07/12 10:13:07;;;;;;;1.60;1.50;;;24.30;71.90;;;24.84;53.42;94745.75;5000513;28;20272;-83
2021/07/12 10:15:37;;;;;;;2.35;1.70;;;24.30;71.90;;;24.90;53.40;94744.59;5030206;28;20222;-83
2021/07/12 10:18:06;;;;;;;1.63;1.52;;;24.40;72.30;;;24.96;54.05;94745.31;5029549;28;20228;-84
2021/07/12 10:20:36;;;;;;;2.47;1.50;;;24.40;72.10;;;25.04;53.67;94741.22;5031088;28;20269;-84
2021/07/12 10:23:06;;;;;;;1.70;1.60;;;24.50;72.10;;;25.09;53.25;94733.09;5032555;28;20261;-83
2021/07/12 10:25:35;;;;;;;1.60;1.50;;;24.50;72.20;;;25.19;53.26;94738.31;5014916;28;20227;-84
2021/07/12 10:28:07;;;;;;;1.50;1.40;;;24.60;72.10;;;25.26;53.62;94738.75;5015028;28;20233;-83
2021/07/12 10:30:47;;;;;;;2.28;1.50;;;24.60;71.90;;;25.39;53.39;94733.81;5032131;28;20266;-82
2021/07/12 10:33:18;;;;;;;1.50;1.38;;;24.80;71.90;;;25.50;53.30;94719.16;5003982;28;20207;-83
2021/07/12 10:35:48;;;;;;;1.60;1.50;;;24.90;72.00;;;25.62;53.20;94717.91;5018869;28;20228;-84